createdAt,value
2023-03-29T00:03:35.211Z,2.1438127090301005
2023-03-29T00:09:55.160Z,2.1438127090301005
2023-03-29T00:16:16.578Z,1.7525083612040133
2023-03-29T00:22:36.133Z,3.17056856187291
2023-03-29T00:31:36.706Z,3.0535117056856187
2023-03-29T00:37:57.048Z,3.5183946488294313
2023-03-29T00:44:17.985Z,3.230769230769231
2023-03-29T00:50:38.308Z,2.842809364548495
2023-03-29T01:07:01.501Z,2.2240802675585285
2023-03-29T01:14:53.086Z,2.2140468227424748
2023-03-29T01:21:13.387Z,1.605351170568562
2023-03-29T01:27:32.729Z,2.4816053511705687
2023-03-29T01:33:51.669Z,2.7759197324414715
2023-03-29T01:40:11.254Z,2.17056856187291
2023-03-29T01:46:31.818Z,2.3377926421404682
2023-03-29T01:52:51.679Z,2.769230769230769
2023-03-29T01:59:11.728Z,2.6755852842809364
2023-03-29T02:08:24.275Z,2.8127090301003346
2023-03-29T02:14:42.688Z,2.2274247491638794
2023-03-29T02:21:01.962Z,2.548494983277592
2023-03-29T02:28:07.803Z,2.1070234113712374
2023-03-29T02:34:26.851Z,2.5250836120401337
2023-03-29T02:40:46.901Z,2.9096989966555182
2023-03-29T02:47:07.089Z,2.6722408026755855
2023-03-29T02:53:25.707Z,4.096989966555184
2023-03-29T03:01:25.493Z,5.264214046822742
2023-03-29T03:13:46.143Z,4.280936454849498
2023-03-29T03:20:06.649Z,5.538461538461538
2023-03-29T03:29:07.489Z,4.74247491638796
2023-03-29T03:37:21.285Z,4.775919732441472
2023-03-29T03:43:39.702Z,8.280936454849499
2023-03-29T03:49:59.286Z,6.491638795986622
2023-03-29T04:02:23.786Z,6.290969899665551
2023-03-29T04:12:27.710Z,4.869565217391305
2023-03-29T04:28:40.014Z,5.173913043478261
2023-03-29T04:34:59.881Z,5.190635451505017
2023-03-29T04:44:43.010Z,4.655518394648829
2023-03-29T04:51:52.780Z,2.7324414715719065
2023-03-29T05:04:56.518Z,3.0066889632107023
2023-03-29T05:11:16.651Z,3.6622073578595318
2023-03-29T05:17:36.059Z,3.5618729096989967
2023-03-29T05:23:55.665Z,2.408026755852843
2023-03-29T05:30:14.405Z,3.551839464882943
2023-03-29T05:36:35.545Z,3.280936454849498
2023-03-29T05:42:56.927Z,2.7324414715719065
2023-03-29T05:49:17.950Z,2.588628762541806
2023-03-29T05:55:39.759Z,1.9297658862876255
2023-03-29T06:02:02.150Z,1.391304347826087
2023-03-29T06:08:23.577Z,2.1638795986622075
2023-03-29T06:14:45.016Z,1.3411371237458194
2023-03-29T06:21:06.809Z,2.197324414715719
2023-03-29T06:27:27.981Z,2.6956521739130435
2023-03-29T06:33:49.504Z,2.347826086956522
2023-03-29T06:40:10.994Z,1.414715719063545
2023-03-29T06:49:38.868Z,1.7391304347826086
2023-03-29T06:56:00.786Z,1.5183946488294315
2023-03-29T07:02:23.822Z,2.431438127090301
2023-03-29T07:08:45.576Z,2.9063545150501673
2023-03-29T07:15:07.492Z,1.2575250836120402
2023-03-29T07:21:29.099Z,2.234113712374582
2023-03-29T07:29:20.904Z,1.68561872909699
2023-03-29T07:35:42.654Z,2.220735785953177
2023-03-29T07:42:05.064Z,1.899665551839465
2023-03-29T07:53:04.011Z,1.3110367892976589
2023-03-29T07:59:26.581Z,1.826086956521739
2023-03-29T08:05:48.161Z,1.8695652173913044
2023-03-29T08:12:10.627Z,0.6020066889632107
2023-03-29T08:18:34.261Z,1.434782608695652
2023-03-29T08:24:57.610Z,1.9464882943143813
2023-03-29T08:31:19.006Z,1.2809364548494984
2023-03-29T08:37:40.376Z,4.431438127090301
2023-03-29T08:46:46.537Z,2.8929765886287626
2023-03-29T08:58:48.238Z,3.076923076923077
2023-03-29T09:05:09.937Z,2.882943143812709
2023-03-29T09:17:28.905Z,2.9331103678929766
2023-03-29T09:23:50.217Z,2.157190635451505
2023-03-29T09:30:11.408Z,2.698996655518395
2023-03-29T09:36:32.581Z,4.882943143812709
2023-03-29T09:42:54.244Z,4.59866220735786
2023-03-29T09:49:17.300Z,3.652173913043478
2023-03-29T09:55:38.799Z,4.167224080267559
2023-03-29T10:07:31.522Z,3.8762541806020065
2023-03-29T10:17:07.434Z,4.003344481605351
2023-03-29T10:23:28.847Z,4.765886287625418
2023-03-29T10:40:59.354Z,4.812709030100335
2023-03-29T10:57:09.256Z,4.073578595317726
2023-03-29T11:03:30.426Z,4.357859531772576
2023-03-29T11:09:51.583Z,6.448160535117057
2023-03-29T11:16:13.532Z,5.434782608695652
2023-03-29T11:28:52.078Z,3.959866220735786
2023-03-29T11:35:14.024Z,5.37123745819398
2023-03-29T11:43:40.964Z,5.157190635451505
2023-03-29T11:59:06.481Z,4.558528428093646
2023-03-29T12:05:28.110Z,5.1404682274247495
2023-03-29T12:11:49.576Z,4.7725752508361206
2023-03-29T12:18:11.643Z,6.150501672240803
2023-03-29T12:24:33.972Z,6.662207357859532
2023-03-29T12:30:56.170Z,4.381270903010034
2023-03-29T12:46:01.000Z,6.535117056856187
2023-03-29T12:52:23.259Z,6.1237458193979935
2023-03-29T12:58:47.396Z,5.775919732441472
2023-03-29T13:05:09.189Z,6.073578595317726
2023-03-29T13:11:31.578Z,6.481605351170568
2023-03-29T13:21:51.017Z,7.076923076923077
2023-03-29T13:28:13.116Z,7.993311036789297
2023-03-29T13:34:36.117Z,5.722408026755853
2023-03-29T13:42:35.921Z,6.505016722408027
2023-03-29T13:48:58.922Z,5.60200668896321
2023-03-29T13:55:21.900Z,6.418060200668896
2023-03-29T14:03:44.644Z,6.448160535117057
2023-03-29T14:10:07.969Z,3.819397993311037
2023-03-29T14:16:30.666Z,4.438127090301004
2023-03-29T14:27:49.482Z,4.561872909698996
2023-03-29T14:55:01.624Z,4.846153846153846
2023-03-29T15:07:33.135Z,5.6521739130434785
2023-03-29T15:13:55.547Z,5.076923076923077
2023-03-29T15:20:17.721Z,11.321070234113712
2023-03-29T15:26:40.245Z,5.331103678929765
2023-03-29T15:33:03.648Z,5.1237458193979935
2023-03-29T15:39:27.686Z,4.688963210702341
2023-03-29T15:45:51.158Z,2.903010033444816
2023-03-29T15:52:13.056Z,3.68561872909699
2023-03-29T15:58:35.766Z,2.3846153846153846
2023-03-29T16:04:57.594Z,3.5418060200668897
2023-03-29T16:11:19.757Z,5.103678929765886
2023-03-29T16:17:41.672Z,5.177257525083612
2023-03-29T16:24:03.873Z,5.013377926421405
2023-03-29T16:30:25.637Z,4.521739130434782
2023-03-29T16:36:47.354Z,4.481605351170568
2023-03-29T16:52:33.879Z,3.150501672240803
2023-03-29T17:00:25.331Z,3.82943143812709
2023-03-29T17:11:36.824Z,3.3344481605351173
2023-03-29T17:19:24.893Z,3.177257525083612
2023-03-29T17:25:46.894Z,5.3244147157190636
2023-03-29T17:32:52.445Z,4.909698996655519
2023-03-29T17:47:03.122Z,5.3244147157190636
2023-03-29T17:53:22.931Z,5.190635451505017
2023-03-29T17:59:42.514Z,5.454849498327759
2023-03-29T18:12:50.995Z,7.34113712374582
2023-03-29T18:19:10.343Z,7.849498327759197
2023-03-29T18:31:33.346Z,8.046822742474916
2023-03-29T18:37:53.016Z,10.321070234113712
2023-03-29T18:46:53.649Z,9.130434782608695
2023-03-29T18:54:37.091Z,8.408026755852843
2023-03-29T19:01:06.601Z,9.966555183946488
2023-03-29T19:07:26.460Z,10.889632107023411
2023-03-29T19:19:16.295Z,14.575250836120402
2023-03-29T19:25:35.805Z,12.070234113712374
2023-03-29T19:31:55.820Z,13.324414715719064
2023-03-29T19:44:45.518Z,13.779264214046822
2023-03-29T19:51:06.569Z,12.180602006688963
2023-03-29T19:57:26.639Z,13.74247491638796
2023-03-29T20:03:48.250Z,14.464882943143813
2023-03-29T20:10:08.034Z,13.595317725752508
2023-03-29T20:19:20.752Z,10.889632107023411
2023-03-29T20:25:42.105Z,11.74247491638796
2023-03-29T20:32:39.100Z,12.14046822742475
2023-03-29T20:45:53.519Z,8.976588628762542
2023-03-29T20:52:15.018Z,11.906354515050166
2023-03-29T21:00:13.510Z,9.672240802675585
2023-03-29T21:06:33.416Z,12.347826086956522
2023-03-29T21:12:57.833Z,10.956521739130435
2023-03-29T21:30:07.503Z,13.551839464882944
2023-03-29T21:36:26.512Z,10.94314381270903
2023-03-29T21:42:48.806Z,12.494983277591974
2023-03-29T21:55:25.784Z,11.638795986622073
2023-03-29T22:01:45.991Z,13.588628762541806
2023-03-29T22:21:57.353Z,13.839464882943144
2023-03-29T22:28:17.560Z,13.585284280936454
2023-03-29T22:34:45.287Z,12.622073578595318
2023-03-29T22:42:14.786Z,13.555183946488294
2023-03-29T22:49:22.213Z,10.357859531772576
2023-03-29T23:11:40.652Z,10.076923076923077
2023-03-29T23:22:19.027Z,10.846153846153847
2023-03-29T23:29:26.367Z,10.602006688963211
2023-03-29T23:39:46.137Z,12.277591973244148
2023-03-29T23:47:16.247Z,9.244147157190636
